Time;durP1;ratioP1;P1;durP2;ratioP2;P2;SDS_P1;SDS_P2;PMS_P1;PMS_P2;Temp;Humidity;BMP_temperature;BMP_pressure;BME280_temperature;BME280_humidity;BME280_pressure;Samples;Min_cycle;Max_cycle;Signal;HPM_P1;HPM_P2
2023/04/22 00:01:11;;;;;;;;;;;;;;;22.61;41.36;100534.94;7261644;19;153799;-81
2023/04/22 00:03:40;;;;;;;;;;;;;;;22.60;41.24;100527.66;7263758;19;152637;-81
2023/04/22 00:06:08;;;;;;;;;;;;;;;22.61;41.07;100532.94;7269221;19;154952;-81
2023/04/22 00:08:35;;;;;;;;;;;;;;;22.59;41.10;100528.78;7261713;19;154150;-81
2023/04/22 00:11:02;;;;;;;;;;;;;;;22.57;41.57;100528.31;7259287;19;154337;-81
2023/04/22 00:13:29;;;;;;;;;;;;;;;22.56;41.56;100524.66;7264305;19;153786;-81
2023/04/22 00:15:56;;;;;;;;;;;;;;;22.54;41.63;100518.53;7258377;19;153434;-81
2023/04/22 00:18:23;;;;;;;;;;;;;;;22.52;41.49;100520.88;7259140;19;154242;-81
2023/04/22 00:20:50;;;;;;;;;;;;;;;22.52;41.34;100520.03;7256315;19;153090;-82
2023/04/22 00:23:17;;;;;;;;;;;;;;;22.49;41.56;100510.25;7264382;19;153722;-82
2023/04/22 00:25:47;;;;;;;;;;;;;;;22.51;41.81;100509.94;7260634;19;153402;-83
2023/04/22 00:28:14;;;;;;;;;;;;;;;22.45;41.84;100508.44;7272144;19;154086;-82
2023/04/22 00:30:41;;;;;;;;;;;;;;;22.44;41.89;100501.16;7258407;19;156524;-82
2023/04/22 00:33:08;;;;;;;;;;;;;;;22.37;41.96;100498.00;7260476;19;153962;-82
2023/04/22 00:35:35;;;;;;;;;;;;;;;22.34;42.17;100495.88;7265570;19;154542;-81
2023/04/22 00:38:02;;;;;;;;;;;;;;;22.29;42.48;100485.59;7262390;19;155496;-82
2023/04/22 00:40:29;;;;;;;;;;;;;;;22.21;42.92;100478.00;7259061;19;151858;-83
2023/04/22 00:42:57;;;;;;;;;;;;;;;22.18;42.89;100485.09;7263913;19;153701;-82
2023/04/22 00:45:25;;;;;;;;;;;;;;;22.13;42.94;100479.63;7259399;19;156459;-82
2023/04/22 00:47:52;;;;;;;;;;;;;;;22.11;43.04;100483.94;7260264;19;152874;-82
2023/04/22 00:50:19;;;;;;;;;;;;;;;22.07;43.14;100475.34;7267516;19;153354;-82
2023/04/22 00:52:46;;;;;;;;;;;;;;;22.05;43.08;100471.19;7259523;19;154412;-82
2023/04/22 00:55:14;;;;;;;;;;;;;;;22.02;43.21;100475.50;7260563;19;155502;-82
2023/04/22 00:57:42;;;;;;;;;;;;;;;22.00;43.19;100479.78;7260073;19;154099;-83
2023/04/22 01:00:09;;;;;;;;;;;;;;;21.99;43.10;100478.13;7258059;19;154745;-81
2023/04/22 01:02:37;;;;;;;;;;;;;;;21.97;43.61;100481.28;7264144;19;153686;-82
2023/04/22 01:05:05;;;;;;;;;;;;;;;21.93;43.64;100471.88;7260897;19;154992;-82
2023/04/22 01:07:32;;;;;;;;;;;;;;;21.89;43.58;100470.84;7263195;19;153786;-83
2023/04/22 01:09:59;;;;;;;;;;;;;;;21.88;43.51;100463.53;7258089;19;154763;-82
2023/04/22 01:12:26;;;;;;;;;;;;;;;21.85;43.51;100455.75;7267197;19;152811;-82
2023/04/22 01:14:53;;;;;;;;;;;;;;;21.83;43.82;100452.47;7255586;19;155439;-82
2023/04/22 01:17:20;;;;;;;;;;;;;;;21.80;43.76;100450.31;7256933;19;153735;-82
2023/04/22 01:19:47;;;;;;;;;;;;;;;21.81;43.70;100445.47;7258641;19;153173;-83
2023/04/22 01:22:17;;;;;;;;;;;;;;;21.79;43.80;100447.81;7257407;19;154204;-82
2023/04/22 01:24:44;;;;;;;;;;;;;;;21.79;44.00;100439.38;7254523;19;155921;-82
2023/04/22 01:27:12;;;;;;;;;;;;;;;21.77;43.87;100441.69;7258960;19;154686;-82
2023/04/22 01:29:39;;;;;;;;;;;;;;;21.74;43.86;100438.38;7252827;19;153784;-83
2023/04/22 01:32:06;;;;;;;;;;;;;;;21.73;43.88;100447.13;7257226;19;154068;-82
2023/04/22 01:34:33;;;;;;;;;;;;;;;21.71;43.54;100444.66;7266827;19;153455;-83
2023/04/22 01:37:00;;;;;;;;;;;;;;;21.72;43.79;100437.03;7259573;19;154430;-83
2023/04/22 01:39:28;;;;;;;;;;;;;;;21.71;43.97;100443.84;7260061;19;153689;-82
2023/04/22 01:41:57;;;;;;;;;;;;;;;21.68;43.63;100433.25;7259524;19;153126;-82
2023/04/22 01:44:24;;;;;;;;;;;;;;;21.67;43.62;100432.41;7252888;19;154944;-82
2023/04/22 01:46:51;;;;;;;;;;;;;;;21.63;44.06;100434.22;7261019;19;153455;-82
2023/04/22 01:49:18;;;;;;;;;;;;;;;21.60;43.75;100437.69;7258559;19;155567;-83
2023/04/22 01:51:45;;;;;;;;;;;;;;;21.61;43.93;100442.19;7256951;19;154281;-83
2023/04/22 01:54:12;;;;;;;;;;;;;;;21.55;44.27;100437.84;7255687;19;153761;-82
2023/04/22 01:56:40;;;;;;;;;;;;;;;21.57;43.90;100437.53;7266401;19;153730;-82
2023/04/22 01:59:07;;;;;;;;;;;;;;;21.55;44.04;100435.03;7255983;19;154041;-82
2023/04/22 02:01:34;;;;;;;;;;;;;;;21.55;44.22;100435.03;7256015;19;153860;-82
2023/04/22 02:04:05;;;;;;;;;;;;;;;21.54;44.22;100438.16;7258979;19;155164;-82
2023/04/22 02:06:32;;;;;;;;;;;;;;;21.52;44.15;100434.88;7261305;19;153687;-82
2023/04/22 02:08:59;;;;;;;;;;;;;;;21.49;44.23;100435.50;7258543;19;154261;-82
2023/04/22 02:11:26;;;;;;;;;;;;;;;21.47;44.08;100441.47;7262991;19;153393;-82
2023/04/22 02:13:53;;;;;;;;;;;;;;;21.48;44.38;100442.31;7265367;19;153283;-82
2023/04/22 02:16:20;;;;;;;;;;;;;;;21.48;44.64;100433.88;7271918;19;154604;-83
2023/04/22 02:18:46;;;;;;;;;;;;;;;21.43;44.47;100448.09;7265549;19;152638;-82
2023/04/22 02:21:13;;;;;;;;;;;;;;;21.41;44.82;100439.13;7262234;19;153397;-83
2023/04/22 02:23:40;;;;;;;;;;;;;;;21.41;44.63;100439.13;7265421;19;154554;-82
2023/04/22 02:26:07;;;;;;;;;;;;;;;21.40;44.43;100435.50;7262212;19;152744;-82
2023/04/22 02:28:34;;;;;;;;;;;;;;;21.38;44.72;100439.81;7265085;19;154507;-82
2023/04/22 02:31:01;;;;;;;;;;;;;;;21.36;44.54;100434.50;7261157;19;154151;-82
2023/04/22 02:33:28;;;;;;;;;;;;;;;21.34;44.82;100428.38;7265793;19;154918;-80
2023/04/22 02:35:55;;;;;;;;;;;;;;;21.32;44.78;100419.44;7263174;19;153821;-81
2023/04/22 02:38:23;;;;;;;;;;;;;;;21.30;45.12;100433.81;7273311;19;153893;-80
2023/04/22 02:40:50;;;;;;;;;;;;;;;21.28;44.79;100436.13;7265562;19;153656;-81
2023/04/22 02:43:16;;;;;;;;;;;;;;;21.28;45.11;100435.31;7265472;19;152631;-81
2023/04/22 02:45:44;;;;;;;;;;;;;;;21.25;44.81;100430.34;7259829;19;152447;-81
2023/04/22 02:48:10;;;;;;;;;;;;;;;21.25;45.17;100421.91;7264542;19;153766;-80
2023/04/22 02:50:37;;;;;;;;;;;;;;;21.21;44.81;100415.31;7262137;19;153906;-80
2023/04/22 02:53:05;;;;;;;;;;;;;;;21.20;45.06;100411.66;7262530;19;155153;-81
2023/04/22 02:55:32;;;;;;;;;;;;;;;21.18;45.03;100401.88;7266131;19;154001;-81
2023/04/22 02:57:59;;;;;;;;;;;;;;;21.16;45.46;100413.47;7264095;19;153915;-81
2023/04/22 03:00:26;;;;;;;;;;;;;;;21.17;45.30;100409.47;7267420;19;154334;-81
2023/04/22 03:02:52;;;;;;;;;;;;;;;21.15;45.23;100413.78;7260503;19;154269;-81
2023/04/22 03:05:20;;;;;;;;;;;;;;;21.15;44.96;100409.00;7263544;19;153873;-81
2023/04/22 03:07:48;;;;;;;;;;;;;;;21.12;45.29;100401.16;7264138;19;153366;-81
2023/04/22 03:10:15;;;;;;;;;;;;;;;21.10;45.42;100397.03;7255424;19;153793;-80
2023/04/22 03:12:42;;;;;;;;;;;;;;;21.11;45.15;100396.72;7261288;19;153101;-80
2023/04/22 03:15:09;;;;;;;;;;;;;;;21.09;45.29;100396.22;7258636;19;153190;-80
2023/04/22 03:17:36;;;;;;;;;;;;;;;21.05;45.11;100395.22;7259832;19;154318;-80
2023/04/22 03:20:03;;;;;;;;;;;;;;;21.05;45.52;100374.72;7261755;19;153794;-81
2023/04/22 03:22:30;;;;;;;;;;;;;;;21.05;45.35;100367.13;7266046;19;154546;-81
2023/04/22 03:24:57;;;;;;;;;;;;;;;21.03;45.07;100369.41;7262947;19;153629;-81
2023/04/22 03:27:24;;;;;;;;;;;;;;;21.03;45.14;100374.22;7260029;19;156411;-81
2023/04/22 03:29:51;;;;;;;;;;;;;;;21.01;45.58;100365.28;7257264;19;153994;-81
2023/04/22 03:32:18;;;;;;;;;;;;;;;21.01;45.15;100365.28;7263625;19;153533;-81
2023/04/22 03:34:45;;;;;;;;;;;;;;;20.98;45.62;100360.34;7259036;19;155064;-81
2023/04/22 03:37:12;;;;;;;;;;;;;;;20.95;45.38;100361.78;7255819;19;155541;-81
2023/04/22 03:39:39;;;;;;;;;;;;;;;20.94;45.36;100356.53;7262388;19;153244;-80
2023/04/22 03:42:07;;;;;;;;;;;;;;;20.91;45.51;100358.00;7262168;19;154394;-81
2023/04/22 03:44:34;;;;;;;;;;;;;;;20.90;45.62;100361.09;7264764;19;154234;-80
2023/04/22 03:47:01;;;;;;;;;;;;;;;20.89;45.60;100362.28;7260150;19;153835;-81
2023/04/22 03:49:28;;;;;;;;;;;;;;;20.86;45.23;100364.56;7259303;19;154625;-80
2023/04/22 03:51:55;;;;;;;;;;;;;;;20.84;45.33;100364.09;7261575;19;153661;-80
2023/04/22 03:54:23;;;;;;;;;;;;;;;20.83;45.52;100365.25;7259326;19;156189;-81
2023/04/22 03:56:49;;;;;;;;;;;;;;;20.81;45.84;100361.09;7258763;19;153470;-81
2023/04/22 03:59:17;;;;;;;;;;;;;;;20.80;45.82;100365.88;7256917;19;153872;-81
2023/04/22 04:01:45;;;;;;;;;;;;;;;20.78;45.62;100356.97;7259999;19;154293;-81
2023/04/22 04:04:12;;;;;;;;;;;;;;;20.77;45.56;100348.84;7256971;19;154816;-80
2023/04/22 04:06:43;;;;;;;;;;;;;;;20.77;45.37;100343.22;7267670;19;153273;-79
2023/04/22 04:09:09;;;;;;;;;;;;;;;20.74;45.60;100338.28;7259270;19;155123;-80
2023/04/22 04:11:36;;;;;;;;;;;;;;;20.73;45.60;100340.25;7259411;19;153255;-81
2023/04/22 04:14:03;;;;;;;;;;;;;;;20.72;45.58;100338.59;7254242;19;154386;-80
2023/04/22 04:16:33;;;;;;;;;;;;;;;20.70;45.55;100338.09;7256000;19;153912;-80
2023/04/22 04:19:00;;;;;;;;;;;;;;;20.70;45.53;100340.09;7257079;19;155546;-81
2023/04/22 04:21:28;;;;;;;;;;;;;;;20.68;45.42;100340.41;7258641;19;154103;-80
2023/04/22 04:23:55;;;;;;;;;;;;;;;20.68;45.63;100345.19;7257551;19;153475;-80
2023/04/22 04:26:26;;;;;;;;;;;;;;;20.67;45.84;100337.94;7266570;19;153384;-80
2023/04/22 04:28:53;;;;;;;;;;;;;;;20.66;45.58;100344.69;7258069;19;155360;-80
2023/04/22 04:31:20;;;;;;;;;;;;;;;20.65;45.51;100348.66;7255565;19;154847;-81
2023/04/22 04:33:47;;;;;;;;;;;;;;;20.64;45.38;100341.38;7259228;19;154594;-81
2023/04/22 04:36:14;;;;;;;;;;;;;;;20.63;45.74;100343.34;7259662;19;154033;-80
2023/04/22 04:38:41;;;;;;;;;;;;;;;20.61;45.90;100351.28;7260238;19;154338;-81
2023/04/22 04:41:08;;;;;;;;;;;;;;;20.58;45.43;100349.09;7260760;19;153872;-81
2023/04/22 04:43:35;;;;;;;;;;;;;;;20.58;45.87;100339.88;7257226;19;155420;-81
2023/04/22 04:46:02;;;;;;;;;;;;;;;20.56;45.63;100334.56;7259296;19;153693;-81
2023/04/22 04:48:29;;;;;;;;;;;;;;;20.56;45.84;100336.56;7265334;19;154264;-81
2023/04/22 04:50:57;;;;;;;;;;;;;;;20.55;45.50;100332.09;7256910;19;152975;-79
2023/04/22 04:53:24;;;;;;;;;;;;;;;20.52;45.72;100333.56;7260361;19;153341;-81
2023/04/22 04:55:51;;;;;;;;;;;;;;;20.52;45.91;100344.81;7256819;19;154878;-81
2023/04/22 04:58:18;;;;;;;;;;;;;;;20.51;45.50;100343.13;7263116;19;152558;-80
2023/04/22 05:00:45;;;;;;;;;;;;;;;20.50;45.75;100344.28;7258954;19;154074;-81
2023/04/22 05:03:12;;;;;;;;;;;;;;;20.48;45.76;100343.78;7260470;19;154794;-80
2023/04/22 05:05:40;;;;;;;;;;;;;;;20.48;45.67;100349.41;7259767;19;153440;-81
2023/04/22 05:08:07;;;;;;;;;;;;;;;20.45;45.53;100330.38;7262405;19;155279;-81
2023/04/22 05:10:34;;;;;;;;;;;;;;;20.45;45.53;100329.56;7266799;19;155470;-81
2023/04/22 05:13:00;;;;;;;;;;;;;;;20.45;45.72;100335.16;7259679;19;154649;-80
2023/04/22 05:15:29;;;;;;;;;;;;;;;20.44;45.62;100337.19;7255248;19;153667;-82
2023/04/22 05:17:56;;;;;;;;;;;;;;;20.43;45.70;100332.72;7258869;19;153683;-80
2023/04/22 05:20:23;;;;;;;;;;;;;;;20.42;45.65;100336.66;7258490;19;152963;-80
2023/04/22 05:22:50;;;;;;;;;;;;;;;20.39;45.54;100334.50;7255992;19;153763;-80
2023/04/22 05:25:17;;;;;;;;;;;;;;;20.38;45.80;100330.88;7256760;19;153228;-81
2023/04/22 05:27:44;;;;;;;;;;;;;;;20.38;45.53;100338.44;7258664;19;153020;-80
2023/04/22 05:30:11;;;;;;;;;;;;;;;20.37;45.89;100339.59;7250253;19;157769;-81
2023/04/22 05:32:38;;;;;;;;;;;;;;;20.35;45.88;100327.88;7263964;19;153611;-80
2023/04/22 05:35:05;;;;;;;;;;;;;;;20.35;45.55;100336.31;7255100;19;153483;-80
2023/04/22 05:37:32;;;;;;;;;;;;;;;20.34;45.89;100331.84;7253544;19;153968;-80
2023/04/22 05:39:59;;;;;;;;;;;;;;;20.33;45.51;100345.03;7256837;19;154235;-81
2023/04/22 05:42:26;;;;;;;;;;;;;;;20.31;45.54;100341.72;7255415;19;153465;-81
2023/04/22 05:44:53;;;;;;;;;;;;;;;20.31;45.48;100338.06;7254240;19;154536;-81
2023/04/22 05:47:20;;;;;;;;;;;;;;;20.30;45.73;100342.88;7266180;19;154085;-81
2023/04/22 05:49:47;;;;;;;;;;;;;;;20.31;46.02;100335.25;7263329;19;155716;-81
2023/04/22 05:52:13;;;;;;;;;;;;;;;20.32;46.20;100346.16;7266467;19;151955;-81
2023/04/22 05:54:40;;;;;;;;;;;;;;;20.40;45.96;100352.97;7271217;19;152410;-80
2023/04/22 05:57:07;;;;;;;;;;;;;;;20.48;45.91;100354.19;7265685;19;154382;-80
2023/04/22 05:59:34;;;;;;;;;;;;;;;20.52;46.16;100352.38;7264764;19;154569;-81
2023/04/22 06:02:02;;;;;;;;;;;;;;;20.58;46.51;100343.47;7268252;19;154169;-81
2023/04/22 06:04:29;;;;;;;;;;;;;;;20.65;46.63;100343.03;7266772;19;153638;-81
2023/04/22 06:06:59;;;;;;;;;;;;;;;20.71;46.71;100324.91;7268198;19;153780;-79
2023/04/22 06:09:26;;;;;;;;;;;;;;;20.76;47.15;100319.13;7267524;19;153840;-81
2023/04/22 06:11:53;;;;;;;;;;;;;;;20.81;46.73;100316.16;7264278;19;154456;-80
2023/04/22 06:14:23;;;;;;;;;;;;;;;20.86;46.52;100318.81;7265067;19;154116;-82
2023/04/22 06:16:51;;;;;;;;;;;;;;;20.93;46.65;100313.56;7269234;19;154093;-80
2023/04/22 06:19:19;;;;;;;;;;;;;;;21.00;46.50;100308.28;7262622;19;154199;-80
2023/04/22 06:21:45;;;;;;;;;;;;;;;21.07;46.64;100307.81;7263493;19;153422;-81
2023/04/22 06:24:12;;;;;;;;;;;;;;;21.14;46.75;100311.00;7262757;19;153758;-81
2023/04/22 06:26:39;;;;;;;;;;;;;;;21.20;46.47;100316.13;7262996;19;154809;-80
2023/04/22 06:29:06;;;;;;;;;;;;;;;21.27;46.06;100326.88;7259576;19;154421;-81
2023/04/22 06:31:33;;;;;;;;;;;;;;;21.34;46.09;100334.81;7262852;19;154123;-81
2023/04/22 06:34:00;;;;;;;;;;;;;;;21.40;46.03;100336.31;7260588;19;155014;-81
2023/04/22 06:36:27;;;;;;;;;;;;;;;21.44;45.76;100328.88;7270369;19;155006;-80
2023/04/22 06:38:56;;;;;;;;;;;;;;;21.48;45.51;100327.91;7262799;19;153600;-81
2023/04/22 06:41:23;;;;;;;;;;;;;;;21.52;45.60;100322.44;7262469;19;153898;-81
2023/04/22 06:43:51;;;;;;;;;;;;;;;21.56;45.28;100327.06;7264899;19;152858;-81
2023/04/22 06:46:18;;;;;;;;;;;;;;;21.59;45.25;100326.41;7262232;19;153850;-81
2023/04/22 06:48:45;;;;;;;;;;;;;;;21.63;44.97;100330.19;7264535;19;153657;-81
2023/04/22 06:51:14;;;;;;;;;;;;;;;21.65;44.88;100327.91;7264763;19;154038;-80
2023/04/22 06:53:41;;;;;;;;;;;;;;;21.68;44.71;100330.03;7267898;19;153341;-81
2023/04/22 06:56:08;;;;;;;;;;;;;;;21.71;44.57;100334.19;7265463;19;154343;-81
2023/04/22 06:58:36;;;;;;;;;;;;;;;21.73;44.48;100329.88;7270854;19;153466;-81
2023/04/22 07:01:03;;;;;;;;;;;;;;;21.76;44.40;100339.63;7260302;19;154644;-81
2023/04/22 07:03:30;;;;;;;;;;;;;;;21.78;44.77;100342.09;7264721;19;153538;-81
2023/04/22 07:05:57;;;;;;;;;;;;;;;21.82;44.35;100345.91;7260114;19;153220;-81
2023/04/22 07:08:24;;;;;;;;;;;;;;;21.83;44.63;100345.59;7259690;19;153719;-80
2023/04/22 07:10:51;;;;;;;;;;;;;;;21.84;44.64;100338.81;7261436;19;154079;-81
2023/04/22 07:13:18;;;;;;;;;;;;;;;21.85;44.34;100343.25;7264278;19;154484;-81
2023/04/22 07:15:45;;;;;;;;;;;;;;;21.87;43.95;100345.75;7263024;19;153662;-81
2023/04/22 07:18:12;;;;;;;;;;;;;;;21.89;44.00;100349.06;7266399;19;153809;-81
2023/04/22 07:20:39;;;;;;;;;;;;;;;21.89;44.07;100340.63;7263981;19;155191;-81
2023/04/22 07:23:06;;;;;;;;;;;;;;;21.91;43.87;100357.97;7262473;19;154689;-81
2023/04/22 07:25:33;;;;;;;;;;;;;;;21.93;43.97;100352.91;7263145;19;153271;-80
2023/04/22 07:28:03;;;;;;;;;;;;;;;21.92;43.78;100352.03;7260937;19;155166;-81
2023/04/22 07:30:30;;;;;;;;;;;;;;;21.92;44.05;100352.03;7259666;19;154871;-81
2023/04/22 07:32:57;;;;;;;;;;;;;;;21.92;44.05;100351.19;7262038;19;155284;-80
2023/04/22 07:35:24;;;;;;;;;;;;;;;21.91;43.47;100352.34;7259805;19;156086;-81
2023/04/22 07:37:51;;;;;;;;;;;;;;;21.92;43.63;100345.56;7265095;19;153518;-81
2023/04/22 07:40:18;;;;;;;;;;;;;;;21.91;43.47;100344.75;7263761;19;154555;-80
2023/04/22 07:42:45;;;;;;;;;;;;;;;21.91;43.77;100352.34;7268028;19;154692;-81
2023/04/22 07:45:12;;;;;;;;;;;;;;;21.90;43.47;100347.88;7258175;19;153063;-81
2023/04/22 07:47:39;;;;;;;;;;;;;;;21.90;43.48;100347.88;7259186;19;154207;-81
2023/04/22 07:50:06;;;;;;;;;;;;;;;21.89;43.65;100343.44;7258997;19;153124;-81
2023/04/22 07:52:33;;;;;;;;;;;;;;;21.88;44.17;100348.22;7258182;19;152496;-80
2023/04/22 07:55:01;;;;;;;;;;;;;;;21.87;43.71;100340.13;7259314;19;153449;-81
2023/04/22 07:57:28;;;;;;;;;;;;;;;21.87;44.17;100345.75;7262143;19;153549;-80
2023/04/22 07:59:54;;;;;;;;;;;;;;;21.85;43.51;100337.63;7261178;19;155142;-80
2023/04/22 08:02:21;;;;;;;;;;;;;;;21.84;42.95;100343.59;7260415;19;154982;-78
2023/04/22 08:04:49;;;;;;;;;;;;;;;21.19;39.61;100341.75;7266069;19;154535;-78
2023/04/22 08:07:16;;;;;;;;;;;;;;;21.08;38.96;100337.53;7259986;19;155284;-78
2023/04/22 08:09:58;;;;;;;;;;;;;;;20.88;39.08;100343.78;7253105;19;152694;-78
2023/04/22 08:12:25;;;;;;;;;;;;;;;20.82;40.15;100332.69;7258502;19;153440;-81
2023/04/22 08:14:52;;;;;;;;;;;;;;;20.96;40.49;100324.13;7254647;19;154134;-80
2023/04/22 08:17:20;;;;;;;;;;;;;;;21.03;41.11;100332.09;7259861;19;153513;-80
2023/04/22 08:19:48;;;;;;;;;;;;;;;21.05;42.05;100324.16;7257128;19;154741;-80
2023/04/22 08:22:16;;;;;;;;;;;;;;;21.09;41.97;100330.78;7256435;19;157652;-80
2023/04/22 08:24:43;;;;;;;;;;;;;;;21.15;41.91;100324.72;7271381;19;153597;-80
2023/04/22 08:27:11;;;;;;;;;;;;;;;21.19;41.65;100324.88;7258675;19;154767;-80
2023/04/22 08:29:38;;;;;;;;;;;;;;;21.20;42.11;100324.56;7258743;19;153814;-81
2023/04/22 08:32:05;;;;;;;;;;;;;;;21.23;41.89;100321.09;7261906;19;154193;-81
2023/04/22 08:34:32;;;;;;;;;;;;;;;21.27;42.56;100326.88;7262444;19;154216;-81
2023/04/22 08:36:59;;;;;;;;;;;;;;;21.29;42.69;100318.94;7262396;19;153120;-81
2023/04/22 08:39:26;;;;;;;;;;;;;;;21.33;42.42;100314.31;7260104;19;153621;-80
2023/04/22 08:41:55;;;;;;;;;;;;;;;21.38;42.55;100321.75;7261001;19;155783;-80
2023/04/22 08:44:22;;;;;;;;;;;;;;;21.45;43.01;100322.09;7259330;19;153053;-80
2023/04/22 08:46:50;;;;;;;;;;;;;;;21.48;42.65;100316.66;7267803;19;155044;-80
2023/04/22 08:49:18;;;;;;;;;;;;;;;21.54;43.09;100315.31;7262173;19;153889;-82
2023/04/22 08:51:45;;;;;;;;;;;;;;;21.60;42.67;100325.25;7261920;19;154505;-80
2023/04/22 08:54:18;;;;;;;;;;;;;;;21.67;42.65;100314.31;7259075;19;156167;-80
2023/04/22 08:56:45;;;;;;;;;;;;;;;21.72;43.03;100308.53;7260530;19;153462;-81
2023/04/22 08:59:13;;;;;;;;;;;;;;;21.79;42.84;100304.41;7259161;19;154855;-81
2023/04/22 09:01:40;;;;;;;;;;;;;;;21.85;43.10;100308.69;7259417;19;155381;-81
2023/04/22 09:04:10;;;;;;;;;;;;;;;21.93;42.96;100305.06;7263611;19;152128;-81
2023/04/22 09:06:37;;;;;;;;;;;;;;;22.01;42.51;100309.84;7260744;19;156468;-81
2023/04/22 09:09:05;;;;;;;;;;;;;;;22.05;42.70;100306.03;7264508;19;154914;-81
2023/04/22 09:11:32;;;;;;;;;;;;;;;22.13;42.65;100304.34;7258948;19;155263;-81
2023/04/22 09:13:59;;;;;;;;;;;;;;;22.17;42.36;100306.16;7261704;19;153932;-81
2023/04/22 09:16:28;;;;;;;;;;;;;;;22.25;42.30;100298.88;7261159;19;153713;-81
2023/04/22 09:18:55;;;;;;;;;;;;;;;22.31;42.15;100300.31;7265090;19;153730;-81
2023/04/22 09:21:24;;;;;;;;;;;;;;;22.37;42.16;100289.72;7259521;19;154288;-81
2023/04/22 09:23:53;;;;;;;;;;;;;;;22.41;42.07;100283.06;7264848;19;153918;-81
2023/04/22 09:26:21;;;;;;;;;;;;;;;22.48;42.29;100285.38;7261398;19;154733;-81
2023/04/22 09:28:49;;;;;;;;;;;;;;;22.54;42.14;100286.81;7260378;19;152833;-81
2023/04/22 09:31:19;;;;;;;;;;;;;;;22.58;42.11;100290.59;7270705;19;154204;-81
2023/04/22 09:33:48;;;;;;;;;;;;;;;22.63;41.77;100285.63;7259999;19;154394;-81
2023/04/22 09:36:15;;;;;;;;;;;;;;;22.70;41.59;100284.31;7259411;19;153854;-80
2023/04/22 09:38:52;;;;;;;;;;;;;;;22.73;41.78;100287.25;7262452;19;154280;-80
2023/04/22 09:41:29;;;;;;;;;;;;;;;22.77;41.65;100287.41;7261836;19;153359;-80
2023/04/22 09:43:57;;;;;;;;;;;;;;;22.80;41.39;100279.13;7260661;19;154052;-81
2023/04/22 09:46:25;;;;;;;;;;;;;;;22.83;41.16;100278.44;7262560;19;153925;-81
2023/04/22 09:48:54;;;;;;;;;;;;;;;22.86;41.24;100274.09;7255104;19;154559;-80
2023/04/22 09:51:21;;;;;;;;;;;;;;;22.89;41.08;100273.44;7261745;19;153799;-80
2023/04/22 09:53:58;;;;;;;;;;;;;;;22.90;40.58;100272.25;7267886;19;155913;-81
2023/04/22 09:56:35;;;;;;;;;;;;;;;22.92;40.50;100276.38;7259329;19;154014;-81
2023/04/22 09:59:02;;;;;;;;;;;;;;;22.94;40.76;100273.25;7254701;19;154517;-81
2023/04/22 10:01:40;;;;;;;;;;;;;;;22.96;40.73;100273.72;7258056;19;154644;-81
2023/04/22 10:04:10;;;;;;;;;;;;;;;22.97;40.43;100273.38;7253521;19;154376;-81
2023/04/22 10:06:37;;;;;;;;;;;;;;;22.97;40.52;100272.53;7256394;19;155367;-81
2023/04/22 10:09:04;;;;;;;;;;;;;;;22.99;40.59;100275.81;7255050;19;154635;-80
2023/04/22 10:11:34;;;;;;;;;;;;;;;23.00;40.15;100266.22;7255175;19;154185;-81
2023/04/22 10:14:05;;;;;;;;;;;;;;;23.01;40.58;100276.31;7250111;19;156209;-81
2023/04/22 10:16:33;;;;;;;;;;;;;;;23.01;40.51;100265.88;7259307;19;152622;-81
2023/04/22 10:19:03;;;;;;;;;;;;;;;23.03;40.47;100276.81;7254222;19;154620;-81
2023/04/22 10:21:31;;;;;;;;;;;;;;;23.05;40.23;100275.31;7252665;19;153962;-80
2023/04/22 10:23:59;;;;;;;;;;;;;;;23.09;40.19;100268.97;7254276;19;151778;-81
2023/04/22 10:26:36;;;;;;;;;;;;;;;23.08;40.24;100275.81;7254616;19;155038;-81
2023/04/22 10:29:05;;;;;;;;;;;;;;;23.11;39.72;100275.94;7250131;19;153309;-82
2023/04/22 10:31:33;;;;;;;;;;;;;;;23.11;40.18;100267.47;7253373;19;154225;-81
2023/04/22 10:34:08;;;;;;;;;;;;;;;23.13;40.17;100270.75;7260498;19;154158;-81
2023/04/22 10:36:50;;;;;;;;;;;;;;;23.11;40.16;100275.09;7266055;19;156415;-80
2023/04/22 10:39:20;;;;;;;;;;;;;;;23.13;40.22;100275.56;7261207;19;155176;-80
2023/04/22 10:42:00;;;;;;;;;;;;;;;23.12;40.65;100268.31;7259122;19;153636;-80
2023/04/22 10:44:29;;;;;;;;;;;;;;;23.14;40.49;100269.59;7255354;19;154201;-81
2023/04/22 10:46:57;;;;;;;;;;;;;;;23.13;40.71;100267.94;7260117;19;153486;-80
2023/04/22 10:49:25;;;;;;;;;;;;;;;23.13;40.50;100278.38;7258688;19;154966;-81
2023/04/22 10:51:54;;;;;;;;;;;;;;;23.14;40.63;100272.41;7262161;19;153503;-80
2023/04/22 10:54:26;;;;;;;;;;;;;;;23.15;40.49;100276.91;7260229;19;154595;-81
2023/04/22 10:57:04;;;;;;;;;;;;;;;23.18;40.96;100281.00;7260851;19;154183;-81
2023/04/22 10:59:32;;;;;;;;;;;;;;;23.22;41.12;100277.16;7262139;19;154713;-81
2023/04/22 11:02:01;;;;;;;;;;;;;;;23.25;41.06;100270.03;7259772;19;154013;-80
2023/04/22 11:04:28;;;;;;;;;;;;;;;23.31;40.61;100269.47;7257205;19;153179;-80
2023/04/22 11:07:05;;;;;;;;;;;;;;;23.35;40.81;100266.78;7258384;19;154661;-81
2023/04/22 11:09:32;;;;;;;;;;;;;;;23.39;40.64;100267.75;7257385;19;154265;-81
2023/04/22 11:12:09;;;;;;;;;;;;;;;23.43;40.41;100274.38;7261370;19;154143;-82
2023/04/22 11:14:36;;;;;;;;;;;;;;;23.45;40.36;100281.31;7257211;19;153691;-81
2023/04/22 11:17:03;;;;;;;;;;;;;;;23.47;39.39;100273.34;7260302;19;153791;-81
2023/04/22 11:19:30;;;;;;;;;;;;;;;23.52;39.67;100274.31;7261202;19;153834;-81
2023/04/22 11:21:57;;;;;;;;;;;;;;;23.53;39.70;100275.97;7266081;19;154126;-81
2023/04/22 11:24:24;;;;;;;;;;;;;;;23.55;39.49;100279.25;7257091;19;154335;-81
2023/04/22 11:26:55;;;;;;;;;;;;;;;23.61;39.76;100284.34;7259253;19;154336;-81
2023/04/22 11:29:22;;;;;;;;;;;;;;;23.58;39.62;100279.38;7256522;19;154903;-81
2023/04/22 11:31:49;;;;;;;;;;;;;;;23.60;39.39;100279.88;7260722;19;153917;-81
2023/04/22 11:34:17;;;;;;;;;;;;;;;23.32;34.33;100290.03;7261702;19;153419;-78
2023/04/22 11:36:44;;;;;;;;;;;;;;;22.86;32.38;100282.53;7257455;19;154115;-79
2023/04/22 11:39:13;;;;;;;;;;;;;;;22.52;32.24;100280.72;7258930;19;153554;-79
2023/04/22 11:41:41;;;;;;;;;;;;;;;22.29;31.92;100290.56;7258515;19;152842;-79
2023/04/22 11:44:08;;;;;;;;;;;;;;;22.12;31.81;100283.81;7261170;19;155273;-79
2023/04/22 11:46:38;;;;;;;;;;;;;;;21.96;31.12;100288.34;7257392;19;154372;-78
2023/04/22 11:49:13;;;;;;;;;;;;;;;21.79;31.59;100291.16;7256346;19;155058;-79
2023/04/22 11:51:49;;;;;;;;;;;;;;;21.59;31.81;100301.09;7256755;19;153152;-78
2023/04/22 11:54:16;;;;;;;;;;;;;;;21.47;32.03;100289.69;7255152;19;154556;-78
2023/04/22 11:56:47;;;;;;;;;;;;;;;21.55;31.98;100294.50;7255097;19;154708;-78
2023/04/22 11:59:16;;;;;;;;;;;;;;;21.20;31.65;100301.25;7255573;19;154109;-78
2023/04/22 12:01:45;;;;;;;;;;;;;;;21.06;31.56;100287.31;7258008;19;153700;-78
2023/04/22 12:04:13;;;;;;;;;;;;;;;21.23;31.71;100281.75;7255784;19;154030;-79
2023/04/22 12:06:41;;;;;;;;;;;;;;;20.96;31.74;100290.44;7266114;19;153757;-79
2023/04/22 12:09:09;;;;;;;;;;;;;;;20.74;31.61;100297.00;7254224;19;156275;-78
2023/04/22 12:11:39;;;;;;;;;;;;;;;20.54;31.76;100291.97;7255806;19;155341;-79
2023/04/22 12:14:06;;;;;;;;;;;;;;;20.60;31.47;100289.84;7254003;19;153678;-79
2023/04/22 12:16:41;;;;;;;;;;;;;;;20.87;31.73;100283.97;7255799;19;152743;-79
2023/04/22 12:19:09;;;;;;;;;;;;;;;21.04;32.19;100284.00;7262996;19;154139;-84
2023/04/22 12:21:37;;;;;;;;;;;;;;;21.24;32.55;100288.19;7257359;19;155014;-81
2023/04/22 12:24:10;;;;;;;;;;;;;;;21.34;33.18;100287.06;7253733;19;155325;-81
2023/04/22 12:26:37;;;;;;;;;;;;;;;21.48;33.33;100279.28;7257097;19;153780;-81
2023/04/22 12:29:04;;;;;;;;;;;;;;;21.59;33.26;100281.41;7261858;19;152965;-80
2023/04/22 12:31:31;;;;;;;;;;;;;;;21.68;33.70;100285.06;7257888;19;153311;-82